createdAt,value
2022-09-06T00:01:46.601Z,1.60
2022-09-06T00:04:16.409Z,1.75
2022-09-06T00:06:46.217Z,2.00
2022-09-06T00:09:15.952Z,1.40
2022-09-06T00:11:48.291Z,1.25
2022-09-06T00:14:18.079Z,1.40
2022-09-06T00:16:47.882Z,1.20
2022-09-06T00:19:17.617Z,1.65
2022-09-06T00:21:47.369Z,1.33
2022-09-06T00:24:17.140Z,1.23
2022-09-06T00:26:49.546Z,1.30
2022-09-06T00:29:19.319Z,1.63
2022-09-06T00:31:49.102Z,1.48
2022-09-06T00:34:18.840Z,1.23
2022-09-06T00:36:48.667Z,1.40
2022-09-06T00:39:18.444Z,1.27
2022-09-06T00:41:50.866Z,1.60
2022-09-06T00:44:20.622Z,1.88
2022-09-06T00:46:52.769Z,1.20
2022-09-06T00:49:27.341Z,1.40
2022-09-06T00:52:01.480Z,1.40
2022-09-06T00:54:31.710Z,1.77
2022-09-06T00:57:04.875Z,1.55
2022-09-06T00:59:40.640Z,1.40
2022-09-06T01:02:10.531Z,1.50
2022-09-06T01:04:43.134Z,1.35
2022-09-06T01:07:20.516Z,1.20
2022-09-06T01:10:05.265Z,1.05
2022-09-06T01:12:47.333Z,1.55
2022-09-06T01:15:39.780Z,1.40
2022-09-06T01:18:23.831Z,1.33
2022-09-06T01:21:11.043Z,1.25
2022-09-06T01:24:05.600Z,1.60
2022-09-06T01:26:54.645Z,1.23
2022-09-06T01:29:33.120Z,1.30
2022-09-06T01:32:13.012Z,1.40
2022-09-06T01:34:48.564Z,1.42
2022-09-06T01:37:22.583Z,1.30
2022-09-06T01:39:52.477Z,1.50
2022-09-06T01:42:28.249Z,1.67
2022-09-06T01:45:04.384Z,1.20
2022-09-06T01:47:42.163Z,1.83
2022-09-06T01:50:34.389Z,1.60
2022-09-06T01:53:19.213Z,1.45
2022-09-06T01:55:58.695Z,1.45
2022-09-06T01:58:56.883Z,1.67
2022-09-06T02:01:34.301Z,1.60
2022-09-06T02:04:13.081Z,1.30
2022-09-06T02:06:47.722Z,1.60
2022-09-06T02:09:20.831Z,1.80
2022-09-06T02:11:54.423Z,1.80
2022-09-06T02:14:31.400Z,1.85
2022-09-06T02:17:05.852Z,2.28
2022-09-06T02:19:39.615Z,1.88
2022-09-06T02:22:13.032Z,1.48
2022-09-06T02:24:46.967Z,1.73
2022-09-06T02:27:17.297Z,1.60
2022-09-06T02:29:47.599Z,2.00
2022-09-06T02:32:23.460Z,2.00
2022-09-06T02:34:54.825Z,1.60
2022-09-06T02:37:26.911Z,1.50
2022-09-06T02:39:58.238Z,1.60
2022-09-06T02:42:29.022Z,2.05
2022-09-06T02:44:58.781Z,1.75
2022-09-06T02:47:31.209Z,1.63
2022-09-06T02:50:00.948Z,2.22
2022-09-06T02:52:31.028Z,1.67
2022-09-06T02:55:00.836Z,1.70
2022-09-06T02:57:30.633Z,2.03
2022-09-06T03:00:00.410Z,2.42
2022-09-06T03:02:32.906Z,2.03
2022-09-06T03:05:03.030Z,1.38
2022-09-06T03:07:32.844Z,1.73
2022-09-06T03:10:02.609Z,1.95
2022-09-06T03:12:32.408Z,1.90
2022-09-06T03:15:02.209Z,1.95
2022-09-06T03:17:34.631Z,1.83
2022-09-06T03:20:04.551Z,1.70
2022-09-06T03:22:34.421Z,1.40
2022-09-06T03:25:04.235Z,1.83
2022-09-06T03:27:34.059Z,1.85
2022-09-06T03:30:03.823Z,1.83
2022-09-06T03:32:36.328Z,1.60
2022-09-06T03:35:06.380Z,1.90
2022-09-06T03:37:36.358Z,1.85
2022-09-06T03:40:06.795Z,1.60
2022-09-06T03:42:40.703Z,1.55
2022-09-06T03:45:11.734Z,1.63
2022-09-06T03:47:44.182Z,1.52
2022-09-06T03:50:14.095Z,1.50
2022-09-06T03:52:43.902Z,2.33
2022-09-06T03:55:13.762Z,1.60
2022-09-06T03:57:43.567Z,1.73
2022-09-06T04:00:14.722Z,2.15
2022-09-06T04:02:47.224Z,1.52
2022-09-06T04:05:17.167Z,1.52
2022-09-06T04:07:46.955Z,1.52
2022-09-06T04:10:16.768Z,1.70
2022-09-06T04:12:47.798Z,2.75
2022-09-06T04:15:17.714Z,2.17
2022-09-06T04:17:50.375Z,2.33
2022-09-06T04:20:20.403Z,1.67
2022-09-06T04:22:50.339Z,2.60
2022-09-06T04:25:20.086Z,4.28
2022-09-06T04:27:49.862Z,2.92
2022-09-06T04:30:19.834Z,2.33
2022-09-06T04:32:52.266Z,2.72
2022-09-06T04:35:25.214Z,1.77
2022-09-06T04:37:54.936Z,2.10
2022-09-06T04:40:24.662Z,2.00
2022-09-06T04:42:54.451Z,1.98
2022-09-06T04:45:24.960Z,2.08
2022-09-06T04:47:57.550Z,2.05
2022-09-06T04:50:27.271Z,2.15
2022-09-06T04:53:07.568Z,2.10
2022-09-06T04:55:37.685Z,1.90
2022-09-06T04:58:07.938Z,1.90
2022-09-06T05:00:38.998Z,3.03
2022-09-06T05:03:11.394Z,2.45
2022-09-06T05:05:44.267Z,1.80
2022-09-06T05:08:14.023Z,1.92
2022-09-06T05:10:43.800Z,2.05
2022-09-06T05:13:13.559Z,1.80
2022-09-06T05:15:43.389Z,2.75
2022-09-06T05:18:16.310Z,2.50
2022-09-06T05:20:46.089Z,1.83
2022-09-06T05:23:15.958Z,1.90
2022-09-06T05:25:45.867Z,1.50
2022-09-06T05:28:15.784Z,2.83
2022-09-06T05:30:45.880Z,2.50
2022-09-06T05:33:26.010Z,1.67
2022-09-06T05:35:56.168Z,1.92
2022-09-06T05:38:29.248Z,1.65
2022-09-06T05:40:59.677Z,3.75
2022-09-06T05:43:29.410Z,1.80
2022-09-06T05:45:59.211Z,1.90
2022-09-06T05:48:36.693Z,1.90
2022-09-06T05:51:09.080Z,2.13
2022-09-06T05:53:39.511Z,3.30
2022-09-06T05:56:10.507Z,2.00
2022-09-06T05:58:41.073Z,1.60
2022-09-06T06:01:17.990Z,1.75
2022-09-06T06:03:57.169Z,1.58
2022-09-06T06:06:28.449Z,1.50
2022-09-06T06:08:58.237Z,1.58
2022-09-06T06:11:29.692Z,1.63
2022-09-06T06:13:59.620Z,1.73
2022-09-06T06:16:29.737Z,1.75
2022-09-06T06:19:02.200Z,2.20
2022-09-06T06:21:33.131Z,2.35
2022-09-06T06:24:05.729Z,1.67
2022-09-06T06:26:37.833Z,1.90
2022-09-06T06:29:09.717Z,2.10
2022-09-06T06:31:41.274Z,1.75
2022-09-06T06:34:13.654Z,2.28
2022-09-06T06:36:44.423Z,2.58
2022-09-06T06:39:14.167Z,1.70
2022-09-06T06:41:44.250Z,2.33
2022-09-06T06:44:40.771Z,1.70
2022-09-06T06:47:10.600Z,1.70
2022-09-06T06:49:43.055Z,1.95
2022-09-06T06:52:13.040Z,2.28
2022-09-06T06:54:42.808Z,2.10
2022-09-06T06:57:12.765Z,1.88
2022-09-06T06:59:42.621Z,2.08
2022-09-06T07:02:12.738Z,1.92
2022-09-06T07:04:45.200Z,2.25
2022-09-06T07:07:30.368Z,3.53
2022-09-06T07:12:50.422Z,1.70
2022-09-06T07:15:20.421Z,2.17
2022-09-06T07:17:50.197Z,1.85
2022-09-06T07:20:23.238Z,2.20
2022-09-06T07:25:51.789Z,2.15
2022-09-06T07:28:21.664Z,2.53
2022-09-06T07:30:51.617Z,2.65
2022-09-06T07:33:21.775Z,3.85
2022-09-06T07:36:01.873Z,2.78
2022-09-06T07:38:32.644Z,2.10
2022-09-06T07:41:04.588Z,3.78
2022-09-06T07:43:35.161Z,2.90
2022-09-06T07:46:06.764Z,2.45
2022-09-06T07:48:38.098Z,3.15
2022-09-06T07:51:12.700Z,2.83
2022-09-06T07:53:44.626Z,2.70
2022-09-06T07:56:15.308Z,2.92
2022-09-06T07:58:45.362Z,3.25
2022-09-06T08:01:27.808Z,2.90
2022-09-06T08:03:57.804Z,3.72
2022-09-06T08:09:21.792Z,2.70
2022-09-06T08:11:52.929Z,3.05
2022-09-06T08:14:22.845Z,2.92
2022-09-06T08:16:52.995Z,2.95
2022-09-06T08:19:22.767Z,3.05
2022-09-06T08:21:59.331Z,3.45
2022-09-06T08:24:29.482Z,2.80
2022-09-06T08:26:59.210Z,2.90
2022-09-06T08:29:29.104Z,3.15
2022-09-06T08:31:58.917Z,2.80
2022-09-06T08:34:28.717Z,2.80
2022-09-06T08:37:01.093Z,3.40
2022-09-06T08:39:30.957Z,2.88
2022-09-06T08:42:03.828Z,3.20
2022-09-06T08:44:55.306Z,3.03
2022-09-06T08:47:26.363Z,2.80
2022-09-06T08:49:59.469Z,3.30
2022-09-06T08:52:49.721Z,2.80
2022-09-06T08:55:39.693Z,2.88
2022-09-06T08:58:32.329Z,2.80
2022-09-06T09:01:06.245Z,2.63
2022-09-06T09:03:39.435Z,2.60
2022-09-06T09:06:12.019Z,2.60
2022-09-06T09:08:49.601Z,3.03
2022-09-06T09:11:22.024Z,3.60
2022-09-06T09:13:57.229Z,3.38
2022-09-06T09:16:27.272Z,3.03
2022-09-06T09:19:01.678Z,2.95
2022-09-06T09:21:35.791Z,2.72
2022-09-06T09:24:10.520Z,3.13
2022-09-06T09:26:50.598Z,3.22
2022-09-06T09:29:25.360Z,2.80
2022-09-06T09:31:58.420Z,3.00
2022-09-06T09:34:33.941Z,2.70
2022-09-06T09:40:07.902Z,3.60
2022-09-06T09:42:39.901Z,3.08
2022-09-06T09:45:26.057Z,3.45
2022-09-06T09:47:56.522Z,3.13
2022-09-06T09:50:30.239Z,3.28
2022-09-06T09:53:10.624Z,2.95
2022-09-06T09:55:44.202Z,3.40
2022-09-06T09:58:24.482Z,3.00
2022-09-06T10:01:13.563Z,2.97
2022-09-06T10:09:36.357Z,2.28
2022-09-06T10:12:09.800Z,2.60
2022-09-06T10:14:47.631Z,2.83
2022-09-06T10:17:32.984Z,3.05
2022-09-06T10:20:07.823Z,2.80
2022-09-06T10:22:52.131Z,2.47
2022-09-06T10:25:44.989Z,2.88
2022-09-06T10:28:36.873Z,2.55
2022-09-06T10:31:52.642Z,2.58
2022-09-06T10:34:52.343Z,2.63
2022-09-06T10:37:36.460Z,3.08
2022-09-06T10:40:10.650Z,2.55
2022-09-06T10:42:50.457Z,2.70
2022-09-06T10:45:47.520Z,3.72
2022-09-06T10:48:24.238Z,2.92
2022-09-06T10:50:57.423Z,3.55
2022-09-06T10:53:37.505Z,3.97
2022-09-06T10:56:13.550Z,3.30
2022-09-06T11:02:03.611Z,3.30
2022-09-06T11:07:31.744Z,3.03
2022-09-06T11:10:07.978Z,3.40
2022-09-06T11:12:44.828Z,3.38
2022-09-06T11:15:16.720Z,3.47
2022-09-06T11:17:54.221Z,4.03
2022-09-06T11:20:32.161Z,4.47
2022-09-06T11:23:29.625Z,3.67
2022-09-06T11:26:24.403Z,3.60
2022-09-06T11:28:57.731Z,3.95
2022-09-06T11:34:27.512Z,3.72
2022-09-06T11:36:59.678Z,4.20
2022-09-06T11:42:43.024Z,4.68
2022-09-06T11:45:21.844Z,3.83
2022-09-06T11:47:53.460Z,4.30
2022-09-06T11:51:03.777Z,3.92
2022-09-06T11:53:36.075Z,4.45
2022-09-06T11:56:28.579Z,4.13
2022-09-06T11:59:02.685Z,4.38
2022-09-06T12:01:41.428Z,3.90
2022-09-06T12:04:12.630Z,4.30
2022-09-06T12:06:46.215Z,4.35
2022-09-06T12:09:35.123Z,4.25
2022-09-06T12:12:05.708Z,4.20
2022-09-06T12:14:39.785Z,3.85
2022-09-06T12:17:48.207Z,4.00
2022-09-06T12:20:54.423Z,4.25
2022-09-06T12:23:46.175Z,4.22
2022-09-06T12:26:35.922Z,4.25
2022-09-06T12:29:13.246Z,4.03
2022-09-06T12:31:46.174Z,3.80
2022-09-06T12:34:20.544Z,4.78
2022-09-06T12:36:54.434Z,4.82
2022-09-06T12:39:24.328Z,4.53
2022-09-06T12:41:57.806Z,5.03
2022-09-06T12:44:36.077Z,4.75
2022-09-06T12:47:12.672Z,5.00
2022-09-06T12:49:42.667Z,4.72
2022-09-06T12:52:14.861Z,4.55
2022-09-06T12:54:48.615Z,4.63
2022-09-06T12:57:22.972Z,4.78
2022-09-06T12:59:58.052Z,4.75
2022-09-06T13:02:38.362Z,4.75
2022-09-06T13:05:11.820Z,5.10
2022-09-06T13:07:45.627Z,5.03
2022-09-06T13:10:19.897Z,5.30
2022-09-06T13:12:53.147Z,4.40
2022-09-06T13:15:28.328Z,5.30
2022-09-06T13:18:27.812Z,5.20
2022-09-06T13:21:01.890Z,5.45
2022-09-06T13:23:33.275Z,4.53
2022-09-06T13:26:04.472Z,5.38
2022-09-06T13:28:36.903Z,5.35
2022-09-06T13:31:15.716Z,5.82
2022-09-06T13:33:46.529Z,5.13
2022-09-06T13:36:25.873Z,5.55
2022-09-06T13:38:55.705Z,5.30
2022-09-06T13:41:41.028Z,5.80
2022-09-06T13:44:22.047Z,5.60
2022-09-06T13:46:58.216Z,5.03
2022-09-06T13:49:28.879Z,5.45
2022-09-06T13:52:02.897Z,5.53
2022-09-06T13:54:34.285Z,5.22
2022-09-06T13:57:04.491Z,5.10
2022-09-06T13:59:34.316Z,5.00
2022-09-06T14:02:09.423Z,5.28
2022-09-06T14:04:40.306Z,4.93
2022-09-06T14:07:10.186Z,5.20
2022-09-06T14:09:40.378Z,5.03
2022-09-06T14:12:10.665Z,5.18
2022-09-06T14:14:40.712Z,5.57
2022-09-06T14:17:13.297Z,5.90
2022-09-06T14:19:43.399Z,5.15
2022-09-06T14:22:13.680Z,4.90
2022-09-06T14:24:43.548Z,5.10
2022-09-06T14:27:13.424Z,5.50
2022-09-06T14:29:43.222Z,5.10
2022-09-06T14:32:19.239Z,5.35
2022-09-06T14:34:51.582Z,5.35
2022-09-06T14:37:21.962Z,4.97
2022-09-06T14:39:52.059Z,5.18
2022-09-06T14:42:24.671Z,5.75
2022-09-06T14:44:54.727Z,5.00
2022-09-06T14:47:27.279Z,4.88
2022-09-06T14:49:57.191Z,5.28
2022-09-06T14:52:27.030Z,5.63
2022-09-06T14:54:56.969Z,5.25
2022-09-06T14:57:26.963Z,5.40
2022-09-06T14:59:56.840Z,4.57
2022-09-06T15:02:29.365Z,5.25
2022-09-06T15:04:59.276Z,5.20
2022-09-06T15:07:29.133Z,5.15
2022-09-06T15:09:59.209Z,5.07
2022-09-06T15:12:29.060Z,5.05
2022-09-06T15:14:59.203Z,5.20
2022-09-06T15:17:31.777Z,4.57
2022-09-06T15:20:01.749Z,4.80
2022-09-06T15:22:31.583Z,4.90
2022-09-06T15:25:03.278Z,4.68
2022-09-06T15:27:34.136Z,4.78
2022-09-06T15:30:04.025Z,4.85
2022-09-06T15:32:36.469Z,4.72
2022-09-06T15:35:06.580Z,4.68
2022-09-06T15:37:36.427Z,5.18
2022-09-06T15:40:06.990Z,4.88
2022-09-06T15:42:37.120Z,4.72
2022-09-06T15:45:07.850Z,4.85
2022-09-06T15:47:40.367Z,4.50
2022-09-06T15:50:11.238Z,4.95
2022-09-06T15:52:41.187Z,4.45
2022-09-06T15:55:23.792Z,5.05
2022-09-06T15:57:54.392Z,5.03
2022-09-06T16:00:24.759Z,4.97
2022-09-06T16:02:58.240Z,4.60
2022-09-06T16:08:19.223Z,4.30
2022-09-06T16:10:49.175Z,4.18
2022-09-06T16:13:19.007Z,4.20
2022-09-06T16:15:58.713Z,3.92
2022-09-06T16:18:31.731Z,4.10
2022-09-06T16:21:06.784Z,4.43
2022-09-06T16:23:36.860Z,5.30
2022-09-06T16:26:07.787Z,4.80
2022-09-06T16:28:40.288Z,4.55
2022-09-06T16:31:12.401Z,4.63
2022-09-06T16:33:45.652Z,5.50
2022-09-06T16:36:16.012Z,4.63
2022-09-06T16:38:45.872Z,4.13
2022-09-06T16:41:19.003Z,4.28
2022-09-06T16:43:49.315Z,3.80
2022-09-06T16:46:19.529Z,4.07
2022-09-06T16:48:57.766Z,4.07
2022-09-06T16:51:28.496Z,4.22
2022-09-06T16:53:59.037Z,3.97
2022-09-06T16:56:33.514Z,6.43
2022-09-06T16:59:05.517Z,4.50
2022-09-06T17:01:37.341Z,5.00
2022-09-06T17:04:10.209Z,4.18
2022-09-06T17:06:44.695Z,4.70
2022-09-06T17:09:16.043Z,4.65
2022-09-06T17:11:46.938Z,4.20
2022-09-06T17:14:16.784Z,4.43
2022-09-06T17:16:59.190Z,4.93
2022-09-06T17:19:32.532Z,4.65
2022-09-06T17:22:02.509Z,4.93
2022-09-06T17:24:32.643Z,4.70
2022-09-06T17:27:02.519Z,4.50
2022-09-06T17:29:32.726Z,5.22
2022-09-06T17:32:03.974Z,4.28
2022-09-06T17:34:36.447Z,4.00
2022-09-06T17:37:06.465Z,4.50
2022-09-06T17:39:36.405Z,4.43
2022-09-06T17:42:07.132Z,5.03
2022-09-06T17:44:37.149Z,4.95
2022-09-06T17:47:14.850Z,5.03
2022-09-06T17:49:47.422Z,5.53
2022-09-06T17:52:17.228Z,4.20
2022-09-06T17:54:47.295Z,4.22
2022-09-06T17:57:17.207Z,4.10
2022-09-06T17:59:47.153Z,4.10
2022-09-06T18:02:16.975Z,3.78
2022-09-06T18:04:49.478Z,3.90
2022-09-06T18:07:19.389Z,4.18
2022-09-06T18:09:49.338Z,4.22
2022-09-06T18:12:19.670Z,4.60
2022-09-06T18:14:49.520Z,4.22
2022-09-06T18:17:19.458Z,4.35
2022-09-06T18:19:52.917Z,3.70
2022-09-06T18:22:22.900Z,3.97
2022-09-06T18:24:58.018Z,3.42
2022-09-06T18:27:28.900Z,4.18
2022-09-06T18:29:58.856Z,3.53
2022-09-06T18:32:28.731Z,3.90
2022-09-06T18:35:01.229Z,4.50
2022-09-06T18:37:31.214Z,4.00
2022-09-06T18:40:01.064Z,4.13
2022-09-06T18:42:30.933Z,3.85
2022-09-06T18:45:00.886Z,4.57
2022-09-06T18:47:30.706Z,3.80
2022-09-06T18:50:04.506Z,4.95
2022-09-06T18:52:35.106Z,4.10
2022-09-06T18:55:05.007Z,3.90
2022-09-06T18:57:34.864Z,4.38
2022-09-06T19:00:05.452Z,4.50
2022-09-06T19:02:35.377Z,4.28
2022-09-06T19:05:08.685Z,4.75
2022-09-06T19:07:38.544Z,3.58
2022-09-06T19:10:08.888Z,4.05
2022-09-06T19:12:39.104Z,3.95
2022-09-06T19:15:10.863Z,4.10
2022-09-06T19:17:41.273Z,4.75
2022-09-06T19:20:13.897Z,4.25
2022-09-06T19:22:43.773Z,3.55
2022-09-06T19:25:13.736Z,3.40
2022-09-06T19:27:46.868Z,4.25
2022-09-06T19:30:19.930Z,4.15
2022-09-06T19:32:49.833Z,4.13
2022-09-06T19:35:22.379Z,4.25
2022-09-06T19:37:52.339Z,3.67
2022-09-06T19:40:22.292Z,3.75
2022-09-06T19:42:52.260Z,3.95
2022-09-06T19:45:22.169Z,3.97
2022-09-06T19:47:51.988Z,3.15
2022-09-06T19:50:24.704Z,3.40
2022-09-06T19:52:55.158Z,3.30
2022-09-06T19:55:25.034Z,3.38
2022-09-06T19:57:54.810Z,3.80
2022-09-06T20:00:24.683Z,3.25
2022-09-06T20:02:54.531Z,3.55
2022-09-06T20:05:27.449Z,3.80
2022-09-06T20:07:57.270Z,4.03
2022-09-06T20:10:27.244Z,3.17
2022-09-06T20:12:57.077Z,3.03
2022-09-06T20:15:26.900Z,3.40
2022-09-06T20:17:56.698Z,3.03
2022-09-06T20:20:29.173Z,2.80
2022-09-06T20:22:59.036Z,4.20
2022-09-06T20:25:28.862Z,3.28
2022-09-06T20:27:58.694Z,3.63
2022-09-06T20:30:30.208Z,4.40
2022-09-06T20:33:00.082Z,3.80
2022-09-06T20:35:32.567Z,3.33
2022-09-06T20:38:02.415Z,3.30
2022-09-06T20:40:36.405Z,2.97
2022-09-06T20:43:06.298Z,3.50
2022-09-06T20:45:36.139Z,3.60
2022-09-06T20:48:05.987Z,3.40
2022-09-06T20:50:38.377Z,3.15
2022-09-06T20:53:08.447Z,3.75
2022-09-06T20:55:38.391Z,4.60
2022-09-06T20:58:08.219Z,3.17
2022-09-06T21:00:42.566Z,3.10
2022-09-06T21:03:12.426Z,3.38
2022-09-06T21:05:47.208Z,3.35
2022-09-06T21:08:17.539Z,3.60
2022-09-06T21:10:47.673Z,3.47
2022-09-06T21:13:17.555Z,2.80
2022-09-06T21:15:50.290Z,3.35
2022-09-06T21:18:20.110Z,3.40
2022-09-06T21:20:58.195Z,3.10
2022-09-06T21:23:29.226Z,3.97
2022-09-06T21:26:03.099Z,4.13
2022-09-06T21:28:34.938Z,3.25
2022-09-06T21:31:06.038Z,3.10
2022-09-06T21:33:36.580Z,3.20
2022-09-06T21:36:10.687Z,3.80
2022-09-06T21:38:42.437Z,3.70
2022-09-06T21:41:13.195Z,3.03
2022-09-06T21:43:43.619Z,3.15
2022-09-06T21:46:14.995Z,3.20
2022-09-06T21:48:46.769Z,3.25
2022-09-06T21:51:20.633Z,3.20
2022-09-06T21:53:52.507Z,2.90
2022-09-06T21:56:23.893Z,3.17
2022-09-06T21:58:55.780Z,3.28
2022-09-06T22:01:26.034Z,3.10
2022-09-06T22:03:56.441Z,2.78
2022-09-06T22:06:30.668Z,3.70
2022-09-06T22:09:02.031Z,3.05
2022-09-06T22:11:34.564Z,3.05
2022-09-06T22:14:06.301Z,2.90
2022-09-06T22:16:38.770Z,2.85
2022-09-06T22:19:09.883Z,3.22
2022-09-06T22:21:42.670Z,3.47
2022-09-06T22:24:14.379Z,3.28
2022-09-06T22:26:45.629Z,2.90
2022-09-06T22:29:16.705Z,2.88
2022-09-06T22:31:46.853Z,3.10
2022-09-06T22:34:17.180Z,2.53
2022-09-06T22:36:50.847Z,2.85
2022-09-06T22:39:20.666Z,2.88
2022-09-06T22:41:50.513Z,2.75
2022-09-06T22:44:21.088Z,3.10
2022-09-06T22:46:51.022Z,2.80
2022-09-06T22:49:20.932Z,2.45
2022-09-06T22:51:53.704Z,2.80
2022-09-06T22:54:23.608Z,2.53
2022-09-06T22:56:53.479Z,2.92
2022-09-06T22:59:23.290Z,2.63
2022-09-06T23:01:53.122Z,3.08
2022-09-06T23:04:23.339Z,2.67
2022-09-06T23:06:55.820Z,2.65
2022-09-06T23:09:25.647Z,2.55
2022-09-06T23:11:57.241Z,2.65
2022-09-06T23:14:27.206Z,2.63
2022-09-06T23:16:57.031Z,3.08
2022-09-06T23:19:26.918Z,2.97
2022-09-06T23:21:59.503Z,2.53
2022-09-06T23:24:29.697Z,2.50
2022-09-06T23:27:04.917Z,2.60
2022-09-06T23:29:35.192Z,2.38
2022-09-06T23:32:05.300Z,2.75
2022-09-06T23:34:35.166Z,2.30
2022-09-06T23:37:08.112Z,2.40
2022-09-06T23:39:37.999Z,2.70
2022-09-06T23:42:07.984Z,2.63
2022-09-06T23:44:40.442Z,2.33
2022-09-06T23:47:10.328Z,2.70
2022-09-06T23:49:40.215Z,2.55
2022-09-06T23:52:15.530Z,2.58
2022-09-06T23:54:45.381Z,2.78
2022-09-06T23:57:15.195Z,2.78
2022-09-06T23:59:44.991Z,2.40
